sensor_id;sensor_type;location;lat;lon;timestamp;P1;durP1;ratioP1;P2;durP2;ratioP2
61572;SDS011;47465;43.094;12.434;2022-09-09T00:00:06;9.63;;;3.70;;
61572;SDS011;47465;43.094;12.434;2022-09-09T00:02:37;8.63;;;4.20;;
61572;SDS011;47465;43.094;12.434;2022-09-09T00:05:12;16.13;;;4.60;;
61572;SDS011;47465;43.094;12.434;2022-09-09T00:07:45;10.38;;;4.03;;
61572;SDS011;47465;43.094;12.434;2022-09-09T00:10:16;7.75;;;4.13;;
61572;SDS011;47465;43.094;12.434;2022-09-09T00:12:51;11.77;;;4.10;;
61572;SDS011;47465;43.094;12.434;2022-09-09T00:15:23;5.05;;;3.47;;
61572;SDS011;47465;43.094;12.434;2022-09-09T00:17:53;9.70;;;4.03;;
61572;SDS011;47465;43.094;12.434;2022-09-09T00:20:26;11.40;;;4.53;;
61572;SDS011;47465;43.094;12.434;2022-09-09T00:22:59;10.85;;;3.90;;
61572;SDS011;47465;43.094;12.434;2022-09-09T00:25:31;7.75;;;3.58;;
61572;SDS011;47465;43.094;12.434;2022-09-09T00:28:04;7.47;;;3.80;;
61572;SDS011;47465;43.094;12.434;2022-09-09T00:30:42;8.65;;;3.83;;
61572;SDS011;47465;43.094;12.434;2022-09-09T00:33:10;8.27;;;3.83;;
61572;SDS011;47465;43.094;12.434;2022-09-09T00:35:42;11.57;;;4.00;;
61572;SDS011;47465;43.094;12.434;2022-09-09T00:38:12;8.55;;;3.70;;
61572;SDS011;47465;43.094;12.434;2022-09-09T00:40:41;8.02;;;3.78;;
61572;SDS011;47465;43.094;12.434;2022-09-09T00:43:21;9.98;;;4.28;;
61572;SDS011;47465;43.094;12.434;2022-09-09T00:45:55;9.33;;;3.73;;
61572;SDS011;47465;43.094;12.434;2022-09-09T00:48:32;11.05;;;3.83;;
61572;SDS011;47465;43.094;12.434;2022-09-09T00:51:08;6.78;;;3.75;;
61572;SDS011;47465;43.094;12.434;2022-09-09T00:53:51;8.48;;;4.30;;
61572;SDS011;47465;43.094;12.434;2022-09-09T00:56:28;9.10;;;3.83;;
61572;SDS011;47465;43.094;12.434;2022-09-09T00:58:59;9.85;;;3.90;;
61572;SDS011;47465;43.094;12.434;2022-09-09T01:01:33;6.57;;;3.90;;
61572;SDS011;47465;43.094;12.434;2022-09-09T01:04:00;9.50;;;4.72;;
61572;SDS011;47465;43.094;12.434;2022-09-09T01:06:37;8.63;;;4.47;;
61572;SDS011;47465;43.094;12.434;2022-09-09T01:09:15;11.63;;;4.32;;
61572;SDS011;47465;43.094;12.434;2022-09-09T01:11:49;9.07;;;4.50;;
61572;SDS011;47465;43.094;12.434;2022-09-09T01:14:35;9.68;;;4.60;;
61572;SDS011;47465;43.094;12.434;2022-09-09T01:17:09;10.50;;;4.53;;
61572;SDS011;47465;43.094;12.434;2022-09-09T01:19:44;9.55;;;4.53;;
61572;SDS011;47465;43.094;12.434;2022-09-09T01:22:21;11.82;;;4.63;;
61572;SDS011;47465;43.094;12.434;2022-09-09T01:25:07;13.02;;;4.95;;
61572;SDS011;47465;43.094;12.434;2022-09-09T01:27:45;9.07;;;4.68;;
61572;SDS011;47465;43.094;12.434;2022-09-09T01:30:13;11.90;;;4.95;;
61572;SDS011;47465;43.094;12.434;2022-09-09T01:32:43;12.25;;;4.45;;
61572;SDS011;47465;43.094;12.434;2022-09-09T01:35:10;9.85;;;4.05;;
61572;SDS011;47465;43.094;12.434;2022-09-09T01:37:40;11.95;;;4.35;;
61572;SDS011;47465;43.094;12.434;2022-09-09T01:40:07;9.95;;;5.38;;
61572;SDS011;47465;43.094;12.434;2022-09-09T01:42:33;9.93;;;4.15;;
61572;SDS011;47465;43.094;12.434;2022-09-09T01:45:00;12.90;;;4.80;;
61572;SDS011;47465;43.094;12.434;2022-09-09T01:47:27;11.00;;;4.43;;
61572;SDS011;47465;43.094;12.434;2022-09-09T01:49:52;7.95;;;3.97;;
61572;SDS011;47465;43.094;12.434;2022-09-09T01:52:18;14.77;;;5.22;;
61572;SDS011;47465;43.094;12.434;2022-09-09T01:54:44;14.55;;;4.60;;
61572;SDS011;47465;43.094;12.434;2022-09-09T01:57:11;11.10;;;4.28;;
61572;SDS011;47465;43.094;12.434;2022-09-09T01:59:48;9.80;;;4.10;;
61572;SDS011;47465;43.094;12.434;2022-09-09T02:02:26;11.70;;;4.55;;
61572;SDS011;47465;43.094;12.434;2022-09-09T02:05:01;10.38;;;5.07;;
61572;SDS011;47465;43.094;12.434;2022-09-09T02:07:38;11.98;;;5.00;;
61572;SDS011;47465;43.094;12.434;2022-09-09T02:10:09;10.05;;;4.65;;
61572;SDS011;47465;43.094;12.434;2022-09-09T02:12:39;11.55;;;3.90;;
61572;SDS011;47465;43.094;12.434;2022-09-09T02:15:11;10.75;;;4.05;;
61572;SDS011;47465;43.094;12.434;2022-09-09T02:17:47;7.75;;;4.07;;
61572;SDS011;47465;43.094;12.434;2022-09-09T02:20:16;9.63;;;4.38;;
61572;SDS011;47465;43.094;12.434;2022-09-09T02:22:45;8.25;;;4.20;;
61572;SDS011;47465;43.094;12.434;2022-09-09T02:25:15;11.05;;;4.10;;
61572;SDS011;47465;43.094;12.434;2022-09-09T02:27:45;12.95;;;4.70;;
61572;SDS011;47465;43.094;12.434;2022-09-09T02:30:14;8.82;;;4.30;;
61572;SDS011;47465;43.094;12.434;2022-09-09T02:32:41;12.93;;;4.97;;
61572;SDS011;47465;43.094;12.434;2022-09-09T02:37:39;10.70;;;4.18;;
61572;SDS011;47465;43.094;12.434;2022-09-09T02:40:08;10.63;;;4.32;;
61572;SDS011;47465;43.094;12.434;2022-09-09T02:42:38;9.90;;;4.25;;
61572;SDS011;47465;43.094;12.434;2022-09-09T02:45:05;9.77;;;4.10;;
61572;SDS011;47465;43.094;12.434;2022-09-09T02:47:33;9.55;;;4.32;;
61572;SDS011;47465;43.094;12.434;2022-09-09T02:50:04;7.88;;;4.07;;
61572;SDS011;47465;43.094;12.434;2022-09-09T02:52:38;8.07;;;4.13;;
61572;SDS011;47465;43.094;12.434;2022-09-09T02:55:16;8.55;;;4.13;;
61572;SDS011;47465;43.094;12.434;2022-09-09T02:57:46;16.90;;;5.00;;
61572;SDS011;47465;43.094;12.434;2022-09-09T03:00:14;10.73;;;3.90;;
61572;SDS011;47465;43.094;12.434;2022-09-09T03:02:40;12.07;;;4.70;;
61572;SDS011;47465;43.094;12.434;2022-09-09T03:05:07;13.52;;;4.45;;
61572;SDS011;47465;43.094;12.434;2022-09-09T03:07:33;9.70;;;3.70;;
61572;SDS011;47465;43.094;12.434;2022-09-09T03:10:01;9.98;;;4.57;;
61572;SDS011;47465;43.094;12.434;2022-09-09T03:12:27;10.55;;;3.88;;
61572;SDS011;47465;43.094;12.434;2022-09-09T03:14:53;9.88;;;4.93;;
61572;SDS011;47465;43.094;12.434;2022-09-09T03:17:19;10.30;;;4.22;;
61572;SDS011;47465;43.094;12.434;2022-09-09T03:19:45;9.82;;;4.10;;
61572;SDS011;47465;43.094;12.434;2022-09-09T03:22:11;10.38;;;4.13;;
61572;SDS011;47465;43.094;12.434;2022-09-09T03:24:38;10.63;;;4.80;;
61572;SDS011;47465;43.094;12.434;2022-09-09T03:27:06;8.27;;;4.25;;
61572;SDS011;47465;43.094;12.434;2022-09-09T03:29:32;11.93;;;4.63;;
61572;SDS011;47465;43.094;12.434;2022-09-09T03:31:58;8.63;;;4.00;;
61572;SDS011;47465;43.094;12.434;2022-09-09T03:34:24;7.70;;;4.45;;
61572;SDS011;47465;43.094;12.434;2022-09-09T03:36:50;11.57;;;4.50;;
61572;SDS011;47465;43.094;12.434;2022-09-09T03:39:16;13.38;;;5.00;;
61572;SDS011;47465;43.094;12.434;2022-09-09T03:41:42;8.32;;;5.05;;
61572;SDS011;47465;43.094;12.434;2022-09-09T03:44:13;11.95;;;4.70;;
61572;SDS011;47465;43.094;12.434;2022-09-09T03:46:40;10.25;;;4.68;;
61572;SDS011;47465;43.094;12.434;2022-09-09T03:49:05;9.25;;;4.32;;
61572;SDS011;47465;43.094;12.434;2022-09-09T03:51:31;10.55;;;5.13;;
61572;SDS011;47465;43.094;12.434;2022-09-09T03:54:01;8.27;;;4.50;;
61572;SDS011;47465;43.094;12.434;2022-09-09T03:58:57;8.93;;;4.28;;
61572;SDS011;47465;43.094;12.434;2022-09-09T04:01:24;12.65;;;4.60;;
61572;SDS011;47465;43.094;12.434;2022-09-09T04:03:50;8.43;;;4.80;;
61572;SDS011;47465;43.094;12.434;2022-09-09T04:06:17;12.35;;;4.70;;
61572;SDS011;47465;43.094;12.434;2022-09-09T04:08:45;12.35;;;4.50;;
61572;SDS011;47465;43.094;12.434;2022-09-09T04:11:13;8.90;;;3.97;;
61572;SDS011;47465;43.094;12.434;2022-09-09T04:13:41;8.20;;;4.40;;
61572;SDS011;47465;43.094;12.434;2022-09-09T04:16:09;7.65;;;4.43;;
61572;SDS011;47465;43.094;12.434;2022-09-09T04:18:38;11.40;;;4.35;;
61572;SDS011;47465;43.094;12.434;2022-09-09T04:21:04;7.22;;;4.00;;
61572;SDS011;47465;43.094;12.434;2022-09-09T04:23:31;11.85;;;4.68;;
61572;SDS011;47465;43.094;12.434;2022-09-09T04:25:59;8.75;;;4.15;;
61572;SDS011;47465;43.094;12.434;2022-09-09T04:28:26;9.85;;;3.67;;
61572;SDS011;47465;43.094;12.434;2022-09-09T04:30:54;10.40;;;4.10;;
61572;SDS011;47465;43.094;12.434;2022-09-09T04:33:20;8.57;;;4.47;;
61572;SDS011;47465;43.094;12.434;2022-09-09T04:35:48;8.68;;;4.18;;
61572;SDS011;47465;43.094;12.434;2022-09-09T04:38:15;13.63;;;4.50;;
61572;SDS011;47465;43.094;12.434;2022-09-09T04:40:42;9.10;;;4.07;;
61572;SDS011;47465;43.094;12.434;2022-09-09T04:43:08;11.50;;;4.80;;
61572;SDS011;47465;43.094;12.434;2022-09-09T04:45:34;9.05;;;4.20;;
61572;SDS011;47465;43.094;12.434;2022-09-09T04:48:01;11.40;;;4.53;;
61572;SDS011;47465;43.094;12.434;2022-09-09T04:50:27;7.50;;;4.05;;
61572;SDS011;47465;43.094;12.434;2022-09-09T04:52:55;8.75;;;4.32;;
61572;SDS011;47465;43.094;12.434;2022-09-09T04:55:21;6.65;;;3.70;;
61572;SDS011;47465;43.094;12.434;2022-09-09T04:57:47;9.48;;;5.07;;
61572;SDS011;47465;43.094;12.434;2022-09-09T05:00:14;11.38;;;4.43;;
61572;SDS011;47465;43.094;12.434;2022-09-09T05:02:40;11.25;;;4.32;;
61572;SDS011;47465;43.094;12.434;2022-09-09T05:05:07;8.63;;;4.53;;
61572;SDS011;47465;43.094;12.434;2022-09-09T05:07:33;8.88;;;3.97;;
61572;SDS011;47465;43.094;12.434;2022-09-09T05:10:00;8.57;;;4.13;;
61572;SDS011;47465;43.094;12.434;2022-09-09T05:12:30;7.50;;;4.07;;
61572;SDS011;47465;43.094;12.434;2022-09-09T05:14:56;9.57;;;4.22;;
61572;SDS011;47465;43.094;12.434;2022-09-09T05:17:22;22.35;;;4.85;;
61572;SDS011;47465;43.094;12.434;2022-09-09T05:19:48;12.70;;;5.43;;
61572;SDS011;47465;43.094;12.434;2022-09-09T05:22:18;9.65;;;4.40;;
61572;SDS011;47465;43.094;12.434;2022-09-09T05:24:44;9.80;;;5.28;;
61572;SDS011;47465;43.094;12.434;2022-09-09T05:27:11;8.50;;;4.72;;
61572;SDS011;47465;43.094;12.434;2022-09-09T05:29:37;11.60;;;4.78;;
61572;SDS011;47465;43.094;12.434;2022-09-09T05:32:03;10.20;;;4.55;;
61572;SDS011;47465;43.094;12.434;2022-09-09T05:34:29;10.75;;;4.68;;
61572;SDS011;47465;43.094;12.434;2022-09-09T05:36:55;13.80;;;4.57;;
61572;SDS011;47465;43.094;12.434;2022-09-09T05:39:21;12.50;;;4.95;;
61572;SDS011;47465;43.094;12.434;2022-09-09T05:41:47;12.88;;;4.78;;
61572;SDS011;47465;43.094;12.434;2022-09-09T05:44:14;10.90;;;4.55;;
61572;SDS011;47465;43.094;12.434;2022-09-09T05:46:40;11.57;;;4.47;;
61572;SDS011;47465;43.094;12.434;2022-09-09T05:49:06;15.82;;;4.53;;
61572;SDS011;47465;43.094;12.434;2022-09-09T05:51:33;9.95;;;5.07;;
61572;SDS011;47465;43.094;12.434;2022-09-09T05:53:59;10.55;;;4.95;;
61572;SDS011;47465;43.094;12.434;2022-09-09T05:56:25;12.57;;;4.90;;
61572;SDS011;47465;43.094;12.434;2022-09-09T05:58:52;12.48;;;5.90;;
61572;SDS011;47465;43.094;12.434;2022-09-09T06:01:21;11.10;;;6.18;;
61572;SDS011;47465;43.094;12.434;2022-09-09T06:03:48;12.93;;;5.68;;
61572;SDS011;47465;43.094;12.434;2022-09-09T06:06:15;11.55;;;5.72;;
61572;SDS011;47465;43.094;12.434;2022-09-09T06:11:10;12.45;;;5.75;;
61572;SDS011;47465;43.094;12.434;2022-09-09T06:13:38;11.82;;;5.85;;
61572;SDS011;47465;43.094;12.434;2022-09-09T06:16:05;11.15;;;5.20;;
61572;SDS011;47465;43.094;12.434;2022-09-09T06:18:34;13.82;;;5.07;;
61572;SDS011;47465;43.094;12.434;2022-09-09T06:21:01;8.73;;;4.70;;
61572;SDS011;47465;43.094;12.434;2022-09-09T06:23:29;10.48;;;5.32;;
61572;SDS011;47465;43.094;12.434;2022-09-09T06:26:02;11.25;;;4.68;;
61572;SDS011;47465;43.094;12.434;2022-09-09T06:28:30;10.63;;;5.03;;
61572;SDS011;47465;43.094;12.434;2022-09-09T06:30:57;9.70;;;4.75;;
61572;SDS011;47465;43.094;12.434;2022-09-09T06:33:24;13.25;;;5.07;;
61572;SDS011;47465;43.094;12.434;2022-09-09T06:35:52;15.55;;;5.55;;
61572;SDS011;47465;43.094;12.434;2022-09-09T06:38:19;15.00;;;6.07;;
61572;SDS011;47465;43.094;12.434;2022-09-09T06:40:50;14.18;;;6.00;;
61572;SDS011;47465;43.094;12.434;2022-09-09T06:43:16;12.70;;;5.90;;
61572;SDS011;47465;43.094;12.434;2022-09-09T06:45:43;10.98;;;5.25;;
61572;SDS011;47465;43.094;12.434;2022-09-09T06:48:18;12.88;;;6.22;;
61572;SDS011;47465;43.094;12.434;2022-09-09T06:50:44;12.40;;;5.38;;
61572;SDS011;47465;43.094;12.434;2022-09-09T06:53:11;12.48;;;6.00;;
61572;SDS011;47465;43.094;12.434;2022-09-09T06:55:37;16.63;;;5.67;;
61572;SDS011;47465;43.094;12.434;2022-09-09T06:58:07;17.08;;;5.22;;
61572;SDS011;47465;43.094;12.434;2022-09-09T07:00:33;10.73;;;4.87;;
61572;SDS011;47465;43.094;12.434;2022-09-09T07:02:59;12.70;;;4.90;;
61572;SDS011;47465;43.094;12.434;2022-09-09T07:05:25;10.18;;;5.05;;
61572;SDS011;47465;43.094;12.434;2022-09-09T07:07:51;13.05;;;5.38;;
61572;SDS011;47465;43.094;12.434;2022-09-09T07:10:18;9.70;;;4.85;;
61572;SDS011;47465;43.094;12.434;2022-09-09T07:12:44;9.82;;;4.68;;
61572;SDS011;47465;43.094;12.434;2022-09-09T07:15:15;14.77;;;5.28;;
61572;SDS011;47465;43.094;12.434;2022-09-09T07:17:41;14.60;;;5.95;;
61572;SDS011;47465;43.094;12.434;2022-09-09T07:20:07;13.73;;;4.85;;
61572;SDS011;47465;43.094;12.434;2022-09-09T07:22:33;13.55;;;5.47;;
61572;SDS011;47465;43.094;12.434;2022-09-09T07:24:59;10.13;;;5.15;;
61572;SDS011;47465;43.094;12.434;2022-09-09T07:27:26;12.70;;;5.00;;
61572;SDS011;47465;43.094;12.434;2022-09-09T07:29:52;11.57;;;4.57;;
61572;SDS011;47465;43.094;12.434;2022-09-09T07:32:19;10.07;;;4.03;;
61572;SDS011;47465;43.094;12.434;2022-09-09T07:34:45;8.43;;;3.90;;
61572;SDS011;47465;43.094;12.434;2022-09-09T07:37:12;9.38;;;3.97;;
61572;SDS011;47465;43.094;12.434;2022-09-09T07:39:38;11.82;;;4.10;;
61572;SDS011;47465;43.094;12.434;2022-09-09T07:42:04;11.75;;;5.00;;
61572;SDS011;47465;43.094;12.434;2022-09-09T07:44:32;12.23;;;5.50;;
61572;SDS011;47465;43.094;12.434;2022-09-09T07:47:00;13.07;;;6.05;;
61572;SDS011;47465;43.094;12.434;2022-09-09T07:49:26;15.77;;;5.95;;
61572;SDS011;47465;43.094;12.434;2022-09-09T07:51:52;13.27;;;6.47;;
61572;SDS011;47465;43.094;12.434;2022-09-09T07:54:19;13.40;;;6.10;;
61572;SDS011;47465;43.094;12.434;2022-09-09T07:56:46;13.02;;;6.65;;
61572;SDS011;47465;43.094;12.434;2022-09-09T07:59:12;17.33;;;7.45;;
61572;SDS011;47465;43.094;12.434;2022-09-09T08:01:40;14.75;;;5.97;;
61572;SDS011;47465;43.094;12.434;2022-09-09T08:04:08;14.45;;;6.00;;
61572;SDS011;47465;43.094;12.434;2022-09-09T08:06:41;13.13;;;5.20;;
61572;SDS011;47465;43.094;12.434;2022-09-09T08:09:08;14.18;;;5.68;;
61572;SDS011;47465;43.094;12.434;2022-09-09T08:11:35;12.85;;;6.88;;
61572;SDS011;47465;43.094;12.434;2022-09-09T08:14:01;15.02;;;6.05;;
61572;SDS011;47465;43.094;12.434;2022-09-09T08:16:28;13.30;;;6.05;;
61572;SDS011;47465;43.094;12.434;2022-09-09T08:18:57;11.13;;;5.63;;
61572;SDS011;47465;43.094;12.434;2022-09-09T08:21:24;12.77;;;6.05;;
61572;SDS011;47465;43.094;12.434;2022-09-09T08:23:53;11.27;;;5.45;;
61572;SDS011;47465;43.094;12.434;2022-09-09T08:26:21;9.48;;;5.43;;
61572;SDS011;47465;43.094;12.434;2022-09-09T08:28:48;10.65;;;5.18;;
61572;SDS011;47465;43.094;12.434;2022-09-09T08:31:17;10.32;;;5.20;;
61572;SDS011;47465;43.094;12.434;2022-09-09T08:33:44;13.75;;;4.88;;
61572;SDS011;47465;43.094;12.434;2022-09-09T08:36:13;12.57;;;5.40;;
61572;SDS011;47465;43.094;12.434;2022-09-09T08:38:41;13.07;;;5.53;;
61572;SDS011;47465;43.094;12.434;2022-09-09T08:41:22;13.77;;;5.53;;
61572;SDS011;47465;43.094;12.434;2022-09-09T08:44:07;12.23;;;5.07;;
61572;SDS011;47465;43.094;12.434;2022-09-09T08:46:38;13.63;;;5.65;;
61572;SDS011;47465;43.094;12.434;2022-09-09T08:49:16;16.75;;;5.93;;
61572;SDS011;47465;43.094;12.434;2022-09-09T08:51:54;15.63;;;5.40;;
61572;SDS011;47465;43.094;12.434;2022-09-09T08:54:22;11.63;;;5.00;;
61572;SDS011;47465;43.094;12.434;2022-09-09T08:56:51;17.42;;;6.95;;
61572;SDS011;47465;43.094;12.434;2022-09-09T08:59:17;16.50;;;7.30;;
61572;SDS011;47465;43.094;12.434;2022-09-09T09:01:48;15.82;;;5.70;;
61572;SDS011;47465;43.094;12.434;2022-09-09T09:04:32;10.82;;;4.80;;
61572;SDS011;47465;43.094;12.434;2022-09-09T09:07:07;15.32;;;5.20;;
61572;SDS011;47465;43.094;12.434;2022-09-09T09:09:44;10.85;;;4.90;;
61572;SDS011;47465;43.094;12.434;2022-09-09T09:12:19;10.48;;;4.65;;
61572;SDS011;47465;43.094;12.434;2022-09-09T09:17:14;11.43;;;4.60;;
61572;SDS011;47465;43.094;12.434;2022-09-09T09:19:42;12.32;;;5.20;;
61572;SDS011;47465;43.094;12.434;2022-09-09T09:22:13;9.40;;;5.13;;
61572;SDS011;47465;43.094;12.434;2022-09-09T09:24:44;12.70;;;4.88;;
61572;SDS011;47465;43.094;12.434;2022-09-09T09:27:18;11.35;;;4.57;;
61572;SDS011;47465;43.094;12.434;2022-09-09T09:30:00;11.70;;;5.25;;
61572;SDS011;47465;43.094;12.434;2022-09-09T09:32:32;11.00;;;4.88;;
61572;SDS011;47465;43.094;12.434;2022-09-09T09:35:00;11.07;;;5.07;;
61572;SDS011;47465;43.094;12.434;2022-09-09T09:37:34;12.75;;;4.88;;
61572;SDS011;47465;43.094;12.434;2022-09-09T09:40:10;14.13;;;5.77;;
61572;SDS011;47465;43.094;12.434;2022-09-09T09:42:38;10.20;;;5.05;;
61572;SDS011;47465;43.094;12.434;2022-09-09T09:45:16;13.68;;;5.43;;
61572;SDS011;47465;43.094;12.434;2022-09-09T09:47:57;17.17;;;5.20;;
61572;SDS011;47465;43.094;12.434;2022-09-09T09:50:23;9.93;;;5.10;;
61572;SDS011;47465;43.094;12.434;2022-09-09T09:52:54;12.10;;;4.80;;
61572;SDS011;47465;43.094;12.434;2022-09-09T09:55:22;13.38;;;4.95;;
61572;SDS011;47465;43.094;12.434;2022-09-09T09:57:49;11.82;;;4.20;;
61572;SDS011;47465;43.094;12.434;2022-09-09T10:00:16;12.45;;;4.30;;
61572;SDS011;47465;43.094;12.434;2022-09-09T10:02:44;17.02;;;5.20;;
61572;SDS011;47465;43.094;12.434;2022-09-09T10:05:13;12.55;;;4.28;;
61572;SDS011;47465;43.094;12.434;2022-09-09T10:07:40;9.10;;;4.03;;
61572;SDS011;47465;43.094;12.434;2022-09-09T10:10:09;8.10;;;3.95;;
61572;SDS011;47465;43.094;12.434;2022-09-09T10:12:43;11.93;;;4.15;;
61572;SDS011;47465;43.094;12.434;2022-09-09T10:15:23;10.07;;;4.10;;
61572;SDS011;47465;43.094;12.434;2022-09-09T10:17:58;7.03;;;3.10;;
61572;SDS011;47465;43.094;12.434;2022-09-09T10:20:35;9.13;;;2.70;;
61572;SDS011;47465;43.094;12.434;2022-09-09T10:23:12;7.30;;;2.53;;
61572;SDS011;47465;43.094;12.434;2022-09-09T10:26:01;10.27;;;3.90;;
61572;SDS011;47465;43.094;12.434;2022-09-09T10:28:48;11.75;;;4.35;;
61572;SDS011;47465;43.094;12.434;2022-09-09T10:31:24;7.78;;;3.80;;
61572;SDS011;47465;43.094;12.434;2022-09-09T10:34:01;11.57;;;3.90;;
61572;SDS011;47465;43.094;12.434;2022-09-09T10:36:35;10.25;;;4.32;;
61572;SDS011;47465;43.094;12.434;2022-09-09T10:39:12;13.73;;;4.13;;
61572;SDS011;47465;43.094;12.434;2022-09-09T10:41:51;12.25;;;5.00;;
61572;SDS011;47465;43.094;12.434;2022-09-09T10:47:09;12.60;;;5.72;;
61572;SDS011;47465;43.094;12.434;2022-09-09T10:50:06;16.55;;;6.03;;
61572;SDS011;47465;43.094;12.434;2022-09-09T10:52:45;12.98;;;5.18;;
61572;SDS011;47465;43.094;12.434;2022-09-09T10:55:23;16.13;;;5.25;;
61572;SDS011;47465;43.094;12.434;2022-09-09T10:57:55;16.20;;;5.47;;
61572;SDS011;47465;43.094;12.434;2022-09-09T11:00:24;17.35;;;6.00;;
61572;SDS011;47465;43.094;12.434;2022-09-09T11:02:57;14.75;;;6.05;;
61572;SDS011;47465;43.094;12.434;2022-09-09T11:05:27;15.80;;;5.68;;
61572;SDS011;47465;43.094;12.434;2022-09-09T11:07:56;18.30;;;5.07;;
61572;SDS011;47465;43.094;12.434;2022-09-09T11:10:25;21.13;;;5.20;;
61572;SDS011;47465;43.094;12.434;2022-09-09T11:13:02;16.70;;;5.10;;
61572;SDS011;47465;43.094;12.434;2022-09-09T11:15:31;13.13;;;5.13;;
61572;SDS011;47465;43.094;12.434;2022-09-09T11:18:03;10.93;;;4.85;;
61572;SDS011;47465;43.094;12.434;2022-09-09T11:20:32;12.75;;;5.15;;
61572;SDS011;47465;43.094;12.434;2022-09-09T11:22:58;14.60;;;4.97;;
61572;SDS011;47465;43.094;12.434;2022-09-09T11:25:31;12.68;;;4.97;;
61572;SDS011;47465;43.094;12.434;2022-09-09T11:28:12;12.27;;;5.45;;
61572;SDS011;47465;43.094;12.434;2022-09-09T11:31:01;15.57;;;4.88;;
61572;SDS011;47465;43.094;12.434;2022-09-09T11:33:53;13.00;;;5.53;;
61572;SDS011;47465;43.094;12.434;2022-09-09T11:36:35;11.88;;;5.55;;
61572;SDS011;47465;43.094;12.434;2022-09-09T11:42:12;16.77;;;4.88;;
61572;SDS011;47465;43.094;12.434;2022-09-09T11:44:50;13.50;;;5.00;;
61572;SDS011;47465;43.094;12.434;2022-09-09T11:47:22;11.50;;;4.82;;
61572;SDS011;47465;43.094;12.434;2022-09-09T11:49:54;13.80;;;4.93;;
61572;SDS011;47465;43.094;12.434;2022-09-09T11:52:21;9.48;;;4.70;;
61572;SDS011;47465;43.094;12.434;2022-09-09T11:54:50;12.57;;;4.60;;
61572;SDS011;47465;43.094;12.434;2022-09-09T11:57:21;14.50;;;4.20;;
61572;SDS011;47465;43.094;12.434;2022-09-09T11:59:52;15.40;;;4.35;;
61572;SDS011;47465;43.094;12.434;2022-09-09T12:02:19;10.50;;;4.40;;
61572;SDS011;47465;43.094;12.434;2022-09-09T12:04:54;9.63;;;3.78;;
61572;SDS011;47465;43.094;12.434;2022-09-09T12:07:28;10.75;;;3.63;;
61572;SDS011;47465;43.094;12.434;2022-09-09T12:09:58;9.32;;;3.67;;
61572;SDS011;47465;43.094;12.434;2022-09-09T12:12:29;9.70;;;3.50;;
61572;SDS011;47465;43.094;12.434;2022-09-09T12:17:42;6.75;;;3.30;;
61572;SDS011;47465;43.094;12.434;2022-09-09T12:20:12;14.95;;;3.85;;
61572;SDS011;47465;43.094;12.434;2022-09-09T12:25:44;9.57;;;3.40;;
61572;SDS011;47465;43.094;12.434;2022-09-09T12:28:25;9.27;;;2.90;;
61572;SDS011;47465;43.094;12.434;2022-09-09T12:31:04;10.27;;;3.08;;
61572;SDS011;47465;43.094;12.434;2022-09-09T12:33:35;5.57;;;2.78;;
61572;SDS011;47465;43.094;12.434;2022-09-09T12:36:03;7.38;;;2.75;;
61572;SDS011;47465;43.094;12.434;2022-09-09T12:38:32;5.20;;;2.55;;
61572;SDS011;47465;43.094;12.434;2022-09-09T12:41:01;12.13;;;2.97;;
61572;SDS011;47465;43.094;12.434;2022-09-09T12:43:27;6.40;;;2.40;;
61572;SDS011;47465;43.094;12.434;2022-09-09T12:45:55;4.50;;;2.30;;
61572;SDS011;47465;43.094;12.434;2022-09-09T12:48:27;6.75;;;2.60;;
61572;SDS011;47465;43.094;12.434;2022-09-09T12:50:59;5.93;;;2.50;;
61572;SDS011;47465;43.094;12.434;2022-09-09T12:53:26;6.65;;;2.55;;
61572;SDS011;47465;43.094;12.434;2022-09-09T12:55:55;6.93;;;2.40;;
61572;SDS011;47465;43.094;12.434;2022-09-09T12:58:22;9.55;;;2.28;;
61572;SDS011;47465;43.094;12.434;2022-09-09T13:00:49;5.30;;;2.38;;
61572;SDS011;47465;43.094;12.434;2022-09-09T13:05:45;5.80;;;2.33;;
61572;SDS011;47465;43.094;12.434;2022-09-09T13:08:14;5.45;;;2.10;;
61572;SDS011;47465;43.094;12.434;2022-09-09T13:10:46;5.07;;;2.00;;
61572;SDS011;47465;43.094;12.434;2022-09-09T13:13:14;7.72;;;2.50;;
61572;SDS011;47465;43.094;12.434;2022-09-09T13:15:48;6.57;;;2.53;;
61572;SDS011;47465;43.094;12.434;2022-09-09T13:18:16;5.30;;;2.00;;
61572;SDS011;47465;43.094;12.434;2022-09-09T13:20:47;8.38;;;2.45;;
61572;SDS011;47465;43.094;12.434;2022-09-09T13:23:15;5.30;;;2.08;;
61572;SDS011;47465;43.094;12.434;2022-09-09T13:25:52;6.85;;;2.50;;
61572;SDS011;47465;43.094;12.434;2022-09-09T13:28:20;8.15;;;2.20;;
61572;SDS011;47465;43.094;12.434;2022-09-09T13:30:54;8.20;;;2.20;;
61572;SDS011;47465;43.094;12.434;2022-09-09T13:33:28;7.53;;;2.40;;
61572;SDS011;47465;43.094;12.434;2022-09-09T13:35:56;4.80;;;1.80;;
61572;SDS011;47465;43.094;12.434;2022-09-09T13:40:56;7.15;;;2.00;;
61572;SDS011;47465;43.094;12.434;2022-09-09T13:43:24;6.35;;;2.00;;
61572;SDS011;47465;43.094;12.434;2022-09-09T13:45:52;6.90;;;1.85;;
61572;SDS011;47465;43.094;12.434;2022-09-09T13:48:19;8.52;;;2.20;;
61572;SDS011;47465;43.094;12.434;2022-09-09T13:50:52;6.30;;;2.10;;
61572;SDS011;47465;43.094;12.434;2022-09-09T13:53:19;7.72;;;2.10;;
61572;SDS011;47465;43.094;12.434;2022-09-09T13:55:46;5.50;;;2.05;;
61572;SDS011;47465;43.094;12.434;2022-09-09T13:58:14;11.10;;;2.50;;
61572;SDS011;47465;43.094;12.434;2022-09-09T14:00:43;4.50;;;1.98;;
61572;SDS011;47465;43.094;12.434;2022-09-09T14:03:09;7.70;;;2.20;;
61572;SDS011;47465;43.094;12.434;2022-09-09T14:05:35;7.38;;;2.10;;
61572;SDS011;47465;43.094;12.434;2022-09-09T14:08:03;7.18;;;2.30;;
61572;SDS011;47465;43.094;12.434;2022-09-09T14:10:29;4.30;;;1.90;;
61572;SDS011;47465;43.094;12.434;2022-09-09T14:12:57;5.85;;;2.17;;
61572;SDS011;47465;43.094;12.434;2022-09-09T14:15:22;6.07;;;2.30;;
61572;SDS011;47465;43.094;12.434;2022-09-09T14:17:48;6.03;;;2.35;;
61572;SDS011;47465;43.094;12.434;2022-09-09T14:20:14;6.50;;;2.20;;
61572;SDS011;47465;43.094;12.434;2022-09-09T14:22:42;6.80;;;2.00;;
61572;SDS011;47465;43.094;12.434;2022-09-09T14:25:09;6.78;;;2.13;;
61572;SDS011;47465;43.094;12.434;2022-09-09T14:27:35;4.63;;;1.67;;
61572;SDS011;47465;43.094;12.434;2022-09-09T14:30:02;5.13;;;2.03;;
61572;SDS011;47465;43.094;12.434;2022-09-09T14:32:29;8.30;;;2.40;;
61572;SDS011;47465;43.094;12.434;2022-09-09T14:34:55;5.93;;;2.20;;
61572;SDS011;47465;43.094;12.434;2022-09-09T14:37:21;5.40;;;2.00;;
61572;SDS011;47465;43.094;12.434;2022-09-09T14:39:47;6.47;;;2.40;;
61572;SDS011;47465;43.094;12.434;2022-09-09T14:42:15;7.70;;;2.10;;
61572;SDS011;47465;43.094;12.434;2022-09-09T14:44:41;7.88;;;2.08;;
61572;SDS011;47465;43.094;12.434;2022-09-09T14:47:08;8.77;;;1.95;;
61572;SDS011;47465;43.094;12.434;2022-09-09T14:49:34;5.28;;;2.20;;
61572;SDS011;47465;43.094;12.434;2022-09-09T14:52:01;4.15;;;2.20;;
61572;SDS011;47465;43.094;12.434;2022-09-09T14:54:27;6.15;;;2.25;;
61572;SDS011;47465;43.094;12.434;2022-09-09T14:56:53;9.57;;;2.40;;
61572;SDS011;47465;43.094;12.434;2022-09-09T14:59:19;7.63;;;2.08;;
61572;SDS011;47465;43.094;12.434;2022-09-09T15:01:45;5.43;;;2.10;;
61572;SDS011;47465;43.094;12.434;2022-09-09T15:04:12;7.03;;;2.15;;
61572;SDS011;47465;43.094;12.434;2022-09-09T15:06:40;6.07;;;2.30;;
61572;SDS011;47465;43.094;12.434;2022-09-09T15:09:07;5.27;;;1.93;;